sensor_id;sensor_type;location;lat;lon;timestamp;pressure;altitude;pressure_sealevel;temperature;humidity
38033;BME280;23841;48.524;1.342;2022-08-19T00:01:48;99230.28;;;24.07;nan
38033;BME280;23841;48.524;1.342;2022-08-19T00:04:17;99229.28;;;24.08;nan
38033;BME280;23841;48.524;1.342;2022-08-19T00:06:47;99213.59;;;23.89;nan
38033;BME280;23841;48.524;1.342;2022-08-19T00:09:14;99233.00;;;24.07;nan
38033;BME280;23841;48.524;1.342;2022-08-19T00:11:40;99239.38;;;24.06;nan
38033;BME280;23841;48.524;1.342;2022-08-19T00:14:08;99213.28;;;24.05;nan
38033;BME280;23841;48.524;1.342;2022-08-19T00:16:36;99208.06;;;24.02;nan
38033;BME280;23841;48.524;1.342;2022-08-19T00:19:02;99218.78;;;24.03;nan
38033;BME280;23841;48.524;1.342;2022-08-19T00:21:28;99229.53;;;24.05;nan
38033;BME280;23841;48.524;1.342;2022-08-19T00:23:55;99234.09;;;24.05;nan
38033;BME280;23841;48.524;1.342;2022-08-19T00:26:25;99252.47;;;24.01;nan
38033;BME280;23841;48.524;1.342;2022-08-19T00:28:51;99249.75;;;24.01;nan
38033;BME280;23841;48.524;1.342;2022-08-19T00:31:17;99212.50;;;24.03;nan
38033;BME280;23841;48.524;1.342;2022-08-19T00:33:42;99292.53;;;23.97;nan
38033;BME280;23841;48.524;1.342;2022-08-19T00:36:09;99223.47;;;24.01;nan
38033;BME280;23841;48.524;1.342;2022-08-19T00:38:36;99237.06;;;24.01;nan
38033;BME280;23841;48.524;1.342;2022-08-19T00:41:02;99233.50;;;24.01;nan
38033;BME280;23841;48.524;1.342;2022-08-19T00:43:28;99224.59;;;23.99;nan
38033;BME280;23841;48.524;1.342;2022-08-19T00:45:54;99245.44;;;23.98;nan
38033;BME280;23841;48.524;1.342;2022-08-19T00:48:20;99255.41;;;23.98;nan
38033;BME280;23841;48.524;1.342;2022-08-19T00:50:48;99277.34;;;23.95;nan
38033;BME280;23841;48.524;1.342;2022-08-19T00:53:19;99249.13;;;23.97;nan
38033;BME280;23841;48.524;1.342;2022-08-19T00:55:48;99235.69;;;23.96;nan
38033;BME280;23841;48.524;1.342;2022-08-19T00:58:17;99311.66;;;23.96;nan
38033;BME280;23841;48.524;1.342;2022-08-19T01:00:45;99243.06;;;23.94;nan
38033;BME280;23841;48.524;1.342;2022-08-19T01:03:14;99233.22;;;23.93;nan
38033;BME280;23841;48.524;1.342;2022-08-19T01:05:42;99250.34;;;23.93;nan
38033;BME280;23841;48.524;1.342;2022-08-19T01:08:09;99296.47;;;23.93;nan
38033;BME280;23841;48.524;1.342;2022-08-19T01:10:41;99248.50;;;23.94;nan
38033;BME280;23841;48.524;1.342;2022-08-19T01:13:09;99235.94;;;23.93;nan
38033;BME280;23841;48.524;1.342;2022-08-19T01:15:42;99227.66;;;23.94;nan
38033;BME280;23841;48.524;1.342;2022-08-19T01:18:12;99235.16;;;23.91;nan
38033;BME280;23841;48.524;1.342;2022-08-19T01:20:38;99266.09;;;23.88;nan
38033;BME280;23841;48.524;1.342;2022-08-19T01:23:04;99238.13;;;23.88;nan
38033;BME280;23841;48.524;1.342;2022-08-19T01:25:34;99229.88;;;23.89;nan
38033;BME280;23841;48.524;1.342;2022-08-19T01:28:00;99232.59;;;23.89;nan
38033;BME280;23841;48.524;1.342;2022-08-19T01:30:30;99212.06;;;23.85;nan
38033;BME280;23841;48.524;1.342;2022-08-19T01:32:56;99212.75;;;23.89;nan
38033;BME280;23841;48.524;1.342;2022-08-19T01:35:24;99233.66;;;23.86;nan
38033;BME280;23841;48.524;1.342;2022-08-19T01:37:55;99220.97;;;23.87;nan
38033;BME280;23841;48.524;1.342;2022-08-19T01:40:23;99258.94;;;23.87;nan
38033;BME280;23841;48.524;1.342;2022-08-19T01:42:50;99254.41;;;23.88;nan
38033;BME280;23841;48.524;1.342;2022-08-19T01:45:17;99241.78;;;23.86;nan
38033;BME280;23841;48.524;1.342;2022-08-19T01:47:43;99252.63;;;23.86;nan
38033;BME280;23841;48.524;1.342;2022-08-19T01:50:10;99225.50;;;23.86;nan
38033;BME280;23841;48.524;1.342;2022-08-19T01:52:37;99258.31;;;23.83;nan
38033;BME280;23841;48.524;1.342;2022-08-19T01:55:04;99247.47;;;23.83;nan
38033;BME280;23841;48.524;1.342;2022-08-19T01:57:30;99262.88;;;23.83;nan
38033;BME280;23841;48.524;1.342;2022-08-19T01:59:55;99245.72;;;23.82;nan
38033;BME280;23841;48.524;1.342;2022-08-19T02:02:22;99269.66;;;23.77;nan
38033;BME280;23841;48.524;1.342;2022-08-19T02:04:47;99258.56;;;23.80;nan
38033;BME280;23841;48.524;1.342;2022-08-19T02:07:13;99260.50;;;23.78;nan
38033;BME280;23841;48.524;1.342;2022-08-19T02:09:38;99258.56;;;23.80;nan
38033;BME280;23841;48.524;1.342;2022-08-19T02:12:05;99244.22;;;23.78;nan
38033;BME280;23841;48.524;1.342;2022-08-19T02:14:33;99241.25;;;23.70;nan
38033;BME280;23841;48.524;1.342;2022-08-19T02:16:59;99256.81;;;23.79;nan
38033;BME280;23841;48.524;1.342;2022-08-19T02:19:24;99255.06;;;23.78;nan
38033;BME280;23841;48.524;1.342;2022-08-19T02:21:50;99260.50;;;23.78;nan
38033;BME280;23841;48.524;1.342;2022-08-19T02:24:15;99237.94;;;23.78;nan
38033;BME280;23841;48.524;1.342;2022-08-19T02:26:40;99268.88;;;23.75;nan
38033;BME280;23841;48.524;1.342;2022-08-19T02:29:06;99256.19;;;23.76;nan
38033;BME280;23841;48.524;1.342;2022-08-19T02:31:31;99245.81;;;23.69;nan
38033;BME280;23841;48.524;1.342;2022-08-19T02:33:57;99260.75;;;23.75;nan
38033;BME280;23841;48.524;1.342;2022-08-19T02:36:24;99266.16;;;23.75;nan
38033;BME280;23841;48.524;1.342;2022-08-19T02:38:50;99255.44;;;23.74;nan
38033;BME280;23841;48.524;1.342;2022-08-19T02:41:20;99258.16;;;23.74;nan
38033;BME280;23841;48.524;1.342;2022-08-19T02:43:46;99286.13;;;23.74;nan
38033;BME280;23841;48.524;1.342;2022-08-19T02:46:17;99277.13;;;23.74;nan
38033;BME280;23841;48.524;1.342;2022-08-19T02:48:49;99262.84;;;23.72;nan
38033;BME280;23841;48.524;1.342;2022-08-19T02:51:24;99267.25;;;23.73;nan
38033;BME280;23841;48.524;1.342;2022-08-19T02:53:50;99267.38;;;23.71;nan
38033;BME280;23841;48.524;1.342;2022-08-19T02:56:15;99262.94;;;23.70;nan
38033;BME280;23841;48.524;1.342;2022-08-19T02:58:41;99258.53;;;23.69;nan
38033;BME280;23841;48.524;1.342;2022-08-19T03:01:09;99273.06;;;23.68;nan
38033;BME280;23841;48.524;1.342;2022-08-19T03:03:35;99272.09;;;23.69;nan
38033;BME280;23841;48.524;1.342;2022-08-19T03:06:20;99276.63;;;23.68;nan
38033;BME280;23841;48.524;1.342;2022-08-19T03:08:47;99280.34;;;23.67;nan
38033;BME280;23841;48.524;1.342;2022-08-19T03:11:21;99258.66;;;23.67;nan
38033;BME280;23841;48.524;1.342;2022-08-19T03:13:47;99255.16;;;23.65;nan
38033;BME280;23841;48.524;1.342;2022-08-19T03:16:17;99242.47;;;23.66;nan
38033;BME280;23841;48.524;1.342;2022-08-19T03:18:43;99272.28;;;23.66;nan
38033;BME280;23841;48.524;1.342;2022-08-19T03:21:08;99240.00;;;23.63;nan
38033;BME280;23841;48.524;1.342;2022-08-19T03:23:35;99275.00;;;23.66;nan
38033;BME280;23841;48.524;1.342;2022-08-19T03:26:06;99268.97;;;23.62;nan
38033;BME280;23841;48.524;1.342;2022-08-19T03:28:32;99275.13;;;23.64;nan
38033;BME280;23841;48.524;1.342;2022-08-19T03:31:00;99267.00;;;23.64;nan
38033;BME280;23841;48.524;1.342;2022-08-19T03:33:27;99245.41;;;23.63;nan
38033;BME280;23841;48.524;1.342;2022-08-19T03:36:04;99251.81;;;23.62;nan
38033;BME280;23841;48.524;1.342;2022-08-19T03:38:31;99268.09;;;23.62;nan
38033;BME280;23841;48.524;1.342;2022-08-19T03:40:57;99273.50;;;23.62;nan
38033;BME280;23841;48.524;1.342;2022-08-19T03:43:23;99267.34;;;23.60;nan
38033;BME280;23841;48.524;1.342;2022-08-19T03:45:49;99251.94;;;23.60;nan
38033;BME280;23841;48.524;1.342;2022-08-19T03:48:14;99271.03;;;23.59;nan
38033;BME280;23841;48.524;1.342;2022-08-19T03:50:42;99267.34;;;23.60;nan
38033;BME280;23841;48.524;1.342;2022-08-19T03:53:07;99245.66;;;23.60;nan
38033;BME280;23841;48.524;1.342;2022-08-19T03:55:39;99228.53;;;23.59;nan
38033;BME280;23841;48.524;1.342;2022-08-19T03:58:05;99227.91;;;23.56;nan
38033;BME280;23841;48.524;1.342;2022-08-19T04:00:31;99248.50;;;23.58;nan
38033;BME280;23841;48.524;1.342;2022-08-19T04:02:58;99259.47;;;23.57;nan
38033;BME280;23841;48.524;1.342;2022-08-19T04:05:24;99235.78;;;23.59;nan
38033;BME280;23841;48.524;1.342;2022-08-19T04:07:49;99263.91;;;23.58;nan
38033;BME280;23841;48.524;1.342;2022-08-19T04:10:14;99245.91;;;23.57;nan
38033;BME280;23841;48.524;1.342;2022-08-19T04:12:40;99272.13;;;23.56;nan
38033;BME280;23841;48.524;1.342;2022-08-19T04:15:06;99252.28;;;23.56;nan
38033;BME280;23841;48.524;1.342;2022-08-19T04:17:32;99260.91;;;23.49;nan
38033;BME280;23841;48.524;1.342;2022-08-19T04:19:58;99258.69;;;23.55;nan
38033;BME280;23841;48.524;1.342;2022-08-19T04:22:24;99235.50;;;23.50;nan
38033;BME280;23841;48.524;1.342;2022-08-19T04:24:49;99210.91;;;23.29;nan
38033;BME280;23841;48.524;1.342;2022-08-19T04:27:15;99236.28;;;23.52;nan
38033;BME280;23841;48.524;1.342;2022-08-19T04:29:40;99252.41;;;23.54;nan
38033;BME280;23841;48.524;1.342;2022-08-19T04:32:06;99302.56;;;23.48;nan
38033;BME280;23841;48.524;1.342;2022-08-19T04:34:32;99252.53;;;23.52;nan
38033;BME280;23841;48.524;1.342;2022-08-19T04:36:58;99255.25;;;23.52;nan
38033;BME280;23841;48.524;1.342;2022-08-19T04:39:29;99252.53;;;23.52;nan
38033;BME280;23841;48.524;1.342;2022-08-19T04:42:14;99244.66;;;23.49;nan
38033;BME280;23841;48.524;1.342;2022-08-19T04:44:58;99262.63;;;23.50;nan
38033;BME280;23841;48.524;1.342;2022-08-19T04:47:24;99221.09;;;23.50;nan
38033;BME280;23841;48.524;1.342;2022-08-19T04:49:50;99268.94;;;23.51;nan
38033;BME280;23841;48.524;1.342;2022-08-19T04:52:15;99259.19;;;23.48;nan
38033;BME280;23841;48.524;1.342;2022-08-19T04:54:40;99242.75;;;23.39;nan
38033;BME280;23841;48.524;1.342;2022-08-19T04:57:08;99270.25;;;23.45;nan
38033;BME280;23841;48.524;1.342;2022-08-19T04:59:35;99252.03;;;23.47;nan
38033;BME280;23841;48.524;1.342;2022-08-19T05:02:03;99247.44;;;23.48;nan
38033;BME280;23841;48.524;1.342;2022-08-19T05:04:29;99282.69;;;23.48;nan
38033;BME280;23841;48.524;1.342;2022-08-19T05:06:57;99272.84;;;23.47;nan
38033;BME280;23841;48.524;1.342;2022-08-19T05:09:22;99228.09;;;23.41;nan
38033;BME280;23841;48.524;1.342;2022-08-19T05:11:47;99263.94;;;23.45;nan
38033;BME280;23841;48.524;1.342;2022-08-19T05:14:15;99280.09;;;23.46;nan
38033;BME280;23841;48.524;1.342;2022-08-19T05:16:41;99277.38;;;23.46;nan
38033;BME280;23841;48.524;1.342;2022-08-19T05:19:07;99252.50;;;23.41;nan
38033;BME280;23841;48.524;1.342;2022-08-19T05:21:51;99264.06;;;23.43;nan
38033;BME280;23841;48.524;1.342;2022-08-19T05:24:36;99274.91;;;23.43;nan
38033;BME280;23841;48.524;1.342;2022-08-19T05:27:02;99295.63;;;23.44;nan
38033;BME280;23841;48.524;1.342;2022-08-19T05:29:29;99290.22;;;23.44;nan
38033;BME280;23841;48.524;1.342;2022-08-19T05:31:56;99294.88;;;23.42;nan
38033;BME280;23841;48.524;1.342;2022-08-19T05:34:23;99285.03;;;23.41;nan
38033;BME280;23841;48.524;1.342;2022-08-19T05:36:54;99295.88;;;23.41;nan
38033;BME280;23841;48.524;1.342;2022-08-19T05:39:21;99279.59;;;23.41;nan
38033;BME280;23841;48.524;1.342;2022-08-19T05:41:49;99506.00;;;23.34;nan
38033;BME280;23841;48.524;1.342;2022-08-19T05:44:16;99295.22;;;23.38;nan
38033;BME280;23841;48.524;1.342;2022-08-19T05:46:45;99286.13;;;23.39;nan
38033;BME280;23841;48.524;1.342;2022-08-19T05:49:13;99301.59;;;23.37;nan
38033;BME280;23841;48.524;1.342;2022-08-19T05:51:38;99288.19;;;23.35;nan
38033;BME280;23841;48.524;1.342;2022-08-19T05:54:05;99301.72;;;23.35;nan
38033;BME280;23841;48.524;1.342;2022-08-19T05:56:33;99279.31;;;23.33;nan
38033;BME280;23841;48.524;1.342;2022-08-19T05:59:02;99307.16;;;23.35;nan
38033;BME280;23841;48.524;1.342;2022-08-19T06:01:29;99282.03;;;23.33;nan
38033;BME280;23841;48.524;1.342;2022-08-19T06:03:54;99273.59;;;23.25;nan
38033;BME280;23841;48.524;1.342;2022-08-19T06:06:20;99279.44;;;23.31;nan
38033;BME280;23841;48.524;1.342;2022-08-19T06:08:45;99301.22;;;23.30;nan
38033;BME280;23841;48.524;1.342;2022-08-19T06:11:17;99292.22;;;23.29;nan
38033;BME280;23841;48.524;1.342;2022-08-19T06:13:44;99277.94;;;23.27;nan
38033;BME280;23841;48.524;1.342;2022-08-19T06:16:13;99283.47;;;23.26;nan
38033;BME280;23841;48.524;1.342;2022-08-19T06:18:44;99282.59;;;23.25;nan
38033;BME280;23841;48.524;1.342;2022-08-19T06:21:10;99263.84;;;23.22;nan
38033;BME280;23841;48.524;1.342;2022-08-19T06:23:35;99264.94;;;23.20;nan
38033;BME280;23841;48.524;1.342;2022-08-19T06:26:01;99266.00;;;23.30;nan
38033;BME280;23841;48.524;1.342;2022-08-19T06:28:26;99279.13;;;23.23;nan
38033;BME280;23841;48.524;1.342;2022-08-19T06:30:51;99271.00;;;23.23;nan
38033;BME280;23841;48.524;1.342;2022-08-19T06:33:17;99268.41;;;23.22;nan
38033;BME280;23841;48.524;1.342;2022-08-19T06:35:42;99292.81;;;23.22;nan
38033;BME280;23841;48.524;1.342;2022-08-19T06:38:08;99303.66;;;23.22;nan
38033;BME280;23841;48.524;1.342;2022-08-19T06:40:35;99258.91;;;23.03;nan
38033;BME280;23841;48.524;1.342;2022-08-19T06:43:01;99282.94;;;23.21;nan
38033;BME280;23841;48.524;1.342;2022-08-19T06:45:27;99279.25;;;23.22;nan
38033;BME280;23841;48.524;1.342;2022-08-19T06:47:53;99280.34;;;23.19;nan
38033;BME280;23841;48.524;1.342;2022-08-19T06:50:23;99305.69;;;23.18;nan
38033;BME280;23841;48.524;1.342;2022-08-19T06:52:48;99275.44;;;23.11;nan
38033;BME280;23841;48.524;1.342;2022-08-19T06:55:14;99288.59;;;23.17;nan
38033;BME280;23841;48.524;1.342;2022-08-19T06:57:41;99295.72;;;23.18;nan
38033;BME280;23841;48.524;1.342;2022-08-19T07:00:08;99328.34;;;23.17;nan
38033;BME280;23841;48.524;1.342;2022-08-19T07:02:40;99296.84;;;23.16;nan
38033;BME280;23841;48.524;1.342;2022-08-19T07:05:06;99338.88;;;23.22;nan
38033;BME280;23841;48.524;1.342;2022-08-19T07:07:32;99289.00;;;23.11;nan
38033;BME280;23841;48.524;1.342;2022-08-19T07:09:57;99297.25;;;23.10;nan
38033;BME280;23841;48.524;1.342;2022-08-19T07:12:23;99313.94;;;23.16;nan
38033;BME280;23841;48.524;1.342;2022-08-19T07:14:48;99294.97;;;23.16;nan
38033;BME280;23841;48.524;1.342;2022-08-19T07:17:14;99330.19;;;23.16;nan
38033;BME280;23841;48.524;1.342;2022-08-19T07:19:40;99308.66;;;23.15;nan
38033;BME280;23841;48.524;1.342;2022-08-19T07:22:08;99306.78;;;23.15;nan
38033;BME280;23841;48.524;1.342;2022-08-19T07:24:34;99323.03;;;23.15;nan
38033;BME280;23841;48.524;1.342;2022-08-19T07:27:02;99306.78;;;23.15;nan
38033;BME280;23841;48.524;1.342;2022-08-19T07:29:31;99324.78;;;23.16;nan
38033;BME280;23841;48.524;1.342;2022-08-19T07:31:59;99323.03;;;23.15;nan
38033;BME280;23841;48.524;1.342;2022-08-19T07:34:28;99327.59;;;23.15;nan
38033;BME280;23841;48.524;1.342;2022-08-19T07:36:54;99319.47;;;23.15;nan
38033;BME280;23841;48.524;1.342;2022-08-19T07:39:26;99302.34;;;23.14;nan
38033;BME280;23841;48.524;1.342;2022-08-19T07:41:53;99321.31;;;23.14;nan
38033;BME280;23841;48.524;1.342;2022-08-19T07:44:19;99297.94;;;23.13;nan
38033;BME280;23841;48.524;1.342;2022-08-19T07:46:49;99360.97;;;23.15;nan
38033;BME280;23841;48.524;1.342;2022-08-19T07:49:16;99309.50;;;23.15;nan
38033;BME280;23841;48.524;1.342;2022-08-19T07:51:47;99311.97;;;23.18;nan
38033;BME280;23841;48.524;1.342;2022-08-19T07:54:13;99320.75;;;23.22;nan
38033;BME280;23841;48.524;1.342;2022-08-19T07:56:39;99337.31;;;23.30;nan
38033;BME280;23841;48.524;1.342;2022-08-19T07:59:04;99327.97;;;23.34;nan
38033;BME280;23841;48.524;1.342;2022-08-19T08:01:30;99335.88;;;23.38;nan
38033;BME280;23841;48.524;1.342;2022-08-19T08:03:57;99328.38;;;23.41;nan
38033;BME280;23841;48.524;1.342;2022-08-19T08:06:42;99336.41;;;23.43;nan
38033;BME280;23841;48.524;1.342;2022-08-19T08:09:39;99325.38;;;23.33;nan
38033;BME280;23841;48.524;1.342;2022-08-19T08:14:44;99344.59;;;23.30;nan
38033;BME280;23841;48.524;1.342;2022-08-19T08:17:12;99318.09;;;23.33;nan
38033;BME280;23841;48.524;1.342;2022-08-19T08:19:39;99310.09;;;23.32;nan
38033;BME280;23841;48.524;1.342;2022-08-19T08:22:07;99312.34;;;23.38;nan
38033;BME280;23841;48.524;1.342;2022-08-19T08:24:33;99322.97;;;23.41;nan
38033;BME280;23841;48.524;1.342;2022-08-19T08:27:01;99326.41;;;23.43;nan
38033;BME280;23841;48.524;1.342;2022-08-19T08:29:29;99325.44;;;23.44;nan
38033;BME280;23841;48.524;1.342;2022-08-19T08:31:55;99318.03;;;23.46;nan
38033;BME280;23841;48.524;1.342;2022-08-19T08:34:21;99315.97;;;23.50;nan
38033;BME280;23841;48.524;1.342;2022-08-19T08:36:47;99313.16;;;23.51;nan
38033;BME280;23841;48.524;1.342;2022-08-19T08:39:16;99327.47;;;23.54;nan
38033;BME280;23841;48.524;1.342;2022-08-19T08:42:30;99340.78;;;23.57;nan
38033;BME280;23841;48.524;1.342;2022-08-19T08:45:08;99332.41;;;23.60;nan
38033;BME280;23841;48.524;1.342;2022-08-19T08:47:41;99345.97;;;23.60;nan
38033;BME280;23841;48.524;1.342;2022-08-19T08:50:34;99342.19;;;23.62;nan
38033;BME280;23841;48.524;1.342;2022-08-19T08:53:02;99328.25;;;23.67;nan
38033;BME280;23841;48.524;1.342;2022-08-19T08:55:30;99326.53;;;23.66;nan
38033;BME280;23841;48.524;1.342;2022-08-19T09:00:28;99342.59;;;23.69;nan
38033;BME280;23841;48.524;1.342;2022-08-19T09:02:55;99334.56;;;23.67;nan
38033;BME280;23841;48.524;1.342;2022-08-19T09:05:24;99325.53;;;23.67;nan
38033;BME280;23841;48.524;1.342;2022-08-19T09:08:06;99322.94;;;23.65;nan
38033;BME280;23841;48.524;1.342;2022-08-19T09:10:49;99346.25;;;23.68;nan
38033;BME280;23841;48.524;1.342;2022-08-19T09:13:38;99304.75;;;23.67;nan
38033;BME280;23841;48.524;1.342;2022-08-19T09:16:11;99332.72;;;23.68;nan
38033;BME280;23841;48.524;1.342;2022-08-19T09:18:52;99311.00;;;23.68;nan
38033;BME280;23841;48.524;1.342;2022-08-19T09:21:20;99340.00;;;23.67;nan
38033;BME280;23841;48.524;1.342;2022-08-19T09:23:46;99303.13;;;23.65;nan
38033;BME280;23841;48.524;1.342;2022-08-19T09:26:17;99345.41;;;23.67;nan
38033;BME280;23841;48.524;1.342;2022-08-19T09:28:44;99312.88;;;23.67;nan
38033;BME280;23841;48.524;1.342;2022-08-19T09:31:20;99328.25;;;23.67;nan
38033;BME280;23841;48.524;1.342;2022-08-19T09:33:47;99307.44;;;23.67;nan
38033;BME280;23841;48.524;1.342;2022-08-19T09:36:16;99301.16;;;23.67;nan
38033;BME280;23841;48.524;1.342;2022-08-19T09:38:44;99290.28;;;23.67;nan
38033;BME280;23841;48.524;1.342;2022-08-19T09:41:13;99350.84;;;23.67;nan
38033;BME280;23841;48.524;1.342;2022-08-19T09:43:40;99318.19;;;23.69;nan
38033;BME280;23841;48.524;1.342;2022-08-19T09:46:07;99393.38;;;150.54;nan
38033;BME280;23841;48.524;1.342;2022-08-19T09:48:35;99326.31;;;23.69;nan
38033;BME280;23841;48.524;1.342;2022-08-19T09:51:09;99304.63;;;23.69;nan
38033;BME280;23841;48.524;1.342;2022-08-19T09:53:36;99307.34;;;23.69;nan
38033;BME280;23841;48.524;1.342;2022-08-19T09:56:03;99341.50;;;23.72;nan
38033;BME280;23841;48.524;1.342;2022-08-19T09:58:31;99297.91;;;23.62;nan
38033;BME280;23841;48.524;1.342;2022-08-19T10:00:57;99337.78;;;23.73;nan
38033;BME280;23841;48.524;1.342;2022-08-19T10:03:24;99336.91;;;23.72;nan
38033;BME280;23841;48.524;1.342;2022-08-19T10:05:50;99284.19;;;23.76;nan
38033;BME280;23841;48.524;1.342;2022-08-19T10:08:23;99344.09;;;23.73;nan
38033;BME280;23841;48.524;1.342;2022-08-19T10:10:51;99336.91;;;23.72;nan
38033;BME280;23841;48.524;1.342;2022-08-19T10:13:19;99305.59;;;23.68;nan
38033;BME280;23841;48.524;1.342;2022-08-19T10:15:48;99330.41;;;23.75;nan
38033;BME280;23841;48.524;1.342;2022-08-19T10:18:17;99333.00;;;23.76;nan
38033;BME280;23841;48.524;1.342;2022-08-19T10:20:44;99363.19;;;23.72;nan
38033;BME280;23841;48.524;1.342;2022-08-19T10:23:11;99351.00;;;23.77;nan
38033;BME280;23841;48.524;1.342;2022-08-19T10:25:36;99332.09;;;23.76;nan
38033;BME280;23841;48.524;1.342;2022-08-19T10:28:03;99388.31;;;23.74;nan
38033;BME280;23841;48.524;1.342;2022-08-19T10:30:29;99324.63;;;23.79;nan
38033;BME280;23841;48.524;1.342;2022-08-19T10:32:55;99330.81;;;23.81;nan
38033;BME280;23841;48.524;1.342;2022-08-19T10:35:20;99349.88;;;23.80;nan
38033;BME280;23841;48.524;1.342;2022-08-19T10:37:46;99308.22;;;23.81;nan
38033;BME280;23841;48.524;1.342;2022-08-19T10:40:11;99339.78;;;23.82;nan
38033;BME280;23841;48.524;1.342;2022-08-19T10:42:37;99317.25;;;23.81;nan
38033;BME280;23841;48.524;1.342;2022-08-19T10:45:04;99358.91;;;23.80;nan
38033;BME280;23841;48.524;1.342;2022-08-19T10:47:31;99283.41;;;23.74;nan
38033;BME280;23841;48.524;1.342;2022-08-19T10:49:57;99284.63;;;23.70;nan
38033;BME280;23841;48.524;1.342;2022-08-19T10:52:42;99312.78;;;23.80;nan
38033;BME280;23841;48.524;1.342;2022-08-19T10:55:08;99258.25;;;23.61;nan
38033;BME280;23841;48.524;1.342;2022-08-19T10:57:52;99296.00;;;23.75;nan
38033;BME280;23841;48.524;1.342;2022-08-19T11:00:20;99321.13;;;23.90;nan
38033;BME280;23841;48.524;1.342;2022-08-19T11:02:46;99326.06;;;23.96;nan
38033;BME280;23841;48.524;1.342;2022-08-19T11:05:12;99307.97;;;23.97;nan
38033;BME280;23841;48.524;1.342;2022-08-19T11:07:40;99316.69;;;24.00;nan
38033;BME280;23841;48.524;1.342;2022-08-19T11:10:07;99327.22;;;24.05;nan
38033;BME280;23841;48.524;1.342;2022-08-19T11:12:33;99352.25;;;24.09;nan
38033;BME280;23841;48.524;1.342;2022-08-19T11:15:01;99321.94;;;24.15;nan
38033;BME280;23841;48.524;1.342;2022-08-19T11:17:26;99313.56;;;24.18;nan
38033;BME280;23841;48.524;1.342;2022-08-19T11:19:52;99320.59;;;24.20;nan
38033;BME280;23841;48.524;1.342;2022-08-19T11:22:17;99305.16;;;24.21;nan
38033;BME280;23841;48.524;1.342;2022-08-19T11:24:43;99305.94;;;24.23;nan
38033;BME280;23841;48.524;1.342;2022-08-19T11:27:09;99328.38;;;24.25;nan
38033;BME280;23841;48.524;1.342;2022-08-19T11:29:37;99309.38;;;24.25;nan
38033;BME280;23841;48.524;1.342;2022-08-19T11:32:06;99303.81;;;24.27;nan
38033;BME280;23841;48.524;1.342;2022-08-19T11:34:32;99286.44;;;24.29;nan
38033;BME280;23841;48.524;1.342;2022-08-19T11:36:57;99286.44;;;24.29;nan
38033;BME280;23841;48.524;1.342;2022-08-19T11:39:26;99312.47;;;24.32;nan
38033;BME280;23841;48.524;1.342;2022-08-19T11:41:52;99291.72;;;24.31;nan
38033;BME280;23841;48.524;1.342;2022-08-19T11:44:17;99301.50;;;24.33;nan
38033;BME280;23841;48.524;1.342;2022-08-19T11:46:44;99262.50;;;24.34;nan
38033;BME280;23841;48.524;1.342;2022-08-19T11:49:14;99290.50;;;24.35;nan
38033;BME280;23841;48.524;1.342;2022-08-19T11:51:40;99298.41;;;24.38;nan
38033;BME280;23841;48.524;1.342;2022-08-19T11:54:08;99295.69;;;24.38;nan
38033;BME280;23841;48.524;1.342;2022-08-19T11:56:36;99294.44;;;24.42;nan
38033;BME280;23841;48.524;1.342;2022-08-19T11:59:02;99312.97;;;24.37;nan
38033;BME280;23841;48.524;1.342;2022-08-19T12:01:28;99283.59;;;24.42;nan
38033;BME280;23841;48.524;1.342;2022-08-19T12:03:54;99297.94;;;24.44;nan
38033;BME280;23841;48.524;1.342;2022-08-19T12:06:25;99300.13;;;24.39;nan
38033;BME280;23841;48.524;1.342;2022-08-19T12:08:57;99311.38;;;24.46;nan
38033;BME280;23841;48.524;1.342;2022-08-19T12:11:25;99291.41;;;24.47;nan
38033;BME280;23841;48.524;1.342;2022-08-19T12:13:51;99295.81;;;24.48;nan
38033;BME280;23841;48.524;1.342;2022-08-19T12:16:23;99289.03;;;24.42;nan
38033;BME280;23841;48.524;1.342;2022-08-19T12:18:48;99280.28;;;24.50;nan
38033;BME280;23841;48.524;1.342;2022-08-19T12:21:19;99279.41;;;24.49;nan
38033;BME280;23841;48.524;1.342;2022-08-19T12:23:48;99298.19;;;24.52;nan
38033;BME280;23841;48.524;1.342;2022-08-19T12:26:14;99283.00;;;24.50;nan
38033;BME280;23841;48.524;1.342;2022-08-19T12:28:40;99282.63;;;24.54;nan
38033;BME280;23841;48.524;1.342;2022-08-19T12:31:08;99299.66;;;24.57;nan
38033;BME280;23841;48.524;1.342;2022-08-19T12:33:34;99296.94;;;24.57;nan
38033;BME280;23841;48.524;1.342;2022-08-19T12:36:05;99307.56;;;24.60;nan
38033;BME280;23841;48.524;1.342;2022-08-19T12:38:32;99287.78;;;24.58;nan
38033;BME280;23841;48.524;1.342;2022-08-19T12:40:58;99290.50;;;24.58;nan
38033;BME280;23841;48.524;1.342;2022-08-19T12:43:24;99309.41;;;24.59;nan
38033;BME280;23841;48.524;1.342;2022-08-19T12:45:49;99294.75;;;24.62;nan
38033;BME280;23841;48.524;1.342;2022-08-19T12:48:15;99297.34;;;24.63;nan
38033;BME280;23841;48.524;1.342;2022-08-19T12:50:42;99308.31;;;24.62;nan
38033;BME280;23841;48.524;1.342;2022-08-19T12:53:07;99321.78;;;24.63;nan
38033;BME280;23841;48.524;1.342;2022-08-19T12:55:33;99305.38;;;24.65;nan
38033;BME280;23841;48.524;1.342;2022-08-19T12:57:59;99287.59;;;24.61;nan
38033;BME280;23841;48.524;1.342;2022-08-19T13:00:26;99300.94;;;24.64;nan
38033;BME280;23841;48.524;1.342;2022-08-19T13:02:52;99311.53;;;24.67;nan
38033;BME280;23841;48.524;1.342;2022-08-19T13:05:26;99290.53;;;24.69;nan
38033;BME280;23841;48.524;1.342;2022-08-19T13:07:53;99285.09;;;24.69;nan
38033;BME280;23841;48.524;1.342;2022-08-19T13:10:24;99294.13;;;24.69;nan
38033;BME280;23841;48.524;1.342;2022-08-19T13:12:51;99295.00;;;24.70;nan
38033;BME280;23841;48.524;1.342;2022-08-19T13:15:18;99265.88;;;24.72;nan
38033;BME280;23841;48.524;1.342;2022-08-19T13:17:48;99298.69;;;24.69;nan
38033;BME280;23841;48.524;1.342;2022-08-19T13:20:16;99278.34;;;24.75;nan
38033;BME280;23841;48.524;1.342;2022-08-19T13:22:42;99289.09;;;24.76;nan
38033;BME280;23841;48.524;1.342;2022-08-19T13:25:08;99278.94;;;24.78;nan
38033;BME280;23841;48.524;1.342;2022-08-19T13:27:35;99274.25;;;24.80;nan
38033;BME280;23841;48.524;1.342;2022-08-19T13:30:01;99275.00;;;24.82;nan
38033;BME280;23841;48.524;1.342;2022-08-19T13:32:45;99411.56;;;24.84;nan